sensor_id;sensor_type;location;lat;lon;timestamp;temperature;humidity
10911;DHT22;5508;49.150;11.030;2024-03-06T00:01:06;5.20;99.90
10911;DHT22;5508;49.150;11.030;2024-03-06T00:04:07;5.30;99.90
10911;DHT22;5508;49.150;11.030;2024-03-06T00:07:08;5.30;99.90
10911;DHT22;5508;49.150;11.030;2024-03-06T00:10:08;5.30;99.90
10911;DHT22;5508;49.150;11.030;2024-03-06T00:13:09;5.30;99.90
10911;DHT22;5508;49.150;11.030;2024-03-06T00:16:10;5.30;99.90
10911;DHT22;5508;49.150;11.030;2024-03-06T00:19:10;5.30;99.90
10911;DHT22;5508;49.150;11.030;2024-03-06T00:22:11;5.30;99.90
10911;DHT22;5508;49.150;11.030;2024-03-06T00:25:11;5.30;99.90
10911;DHT22;5508;49.150;11.030;2024-03-06T00:28:12;5.30;99.90
10911;DHT22;5508;49.150;11.030;2024-03-06T00:31:13;5.30;99.90
10911;DHT22;5508;49.150;11.030;2024-03-06T00:34:14;5.30;99.90
10911;DHT22;5508;49.150;11.030;2024-03-06T00:37:15;5.20;99.90
10911;DHT22;5508;49.150;11.030;2024-03-06T00:40:16;5.20;99.90
10911;DHT22;5508;49.150;11.030;2024-03-06T00:43:16;5.20;99.90
10911;DHT22;5508;49.150;11.030;2024-03-06T00:46:17;5.10;99.90
10911;DHT22;5508;49.150;11.030;2024-03-06T00:49:17;5.20;99.90
10911;DHT22;5508;49.150;11.030;2024-03-06T00:52:18;5.10;99.90
10911;DHT22;5508;49.150;11.030;2024-03-06T00:55:19;5.20;99.90
10911;DHT22;5508;49.150;11.030;2024-03-06T00:58:20;5.20;99.90
10911;DHT22;5508;49.150;11.030;2024-03-06T01:01:20;5.20;99.90
10911;DHT22;5508;49.150;11.030;2024-03-06T01:04:21;5.10;99.90
10911;DHT22;5508;49.150;11.030;2024-03-06T01:07:22;5.10;99.90
10911;DHT22;5508;49.150;11.030;2024-03-06T01:10:23;5.10;99.90
10911;DHT22;5508;49.150;11.030;2024-03-06T01:13:24;5.10;99.90
10911;DHT22;5508;49.150;11.030;2024-03-06T01:16:24;5.10;99.90
10911;DHT22;5508;49.150;11.030;2024-03-06T01:19:25;5.10;99.90
10911;DHT22;5508;49.150;11.030;2024-03-06T01:22:26;5.10;99.90
10911;DHT22;5508;49.150;11.030;2024-03-06T01:25:27;5.10;99.90
10911;DHT22;5508;49.150;11.030;2024-03-06T01:28:27;5.10;99.90
10911;DHT22;5508;49.150;11.030;2024-03-06T01:31:28;5.00;99.90
10911;DHT22;5508;49.150;11.030;2024-03-06T01:34:28;5.00;99.90
10911;DHT22;5508;49.150;11.030;2024-03-06T01:37:29;5.00;99.90
10911;DHT22;5508;49.150;11.030;2024-03-06T01:40:30;5.00;99.90
10911;DHT22;5508;49.150;11.030;2024-03-06T01:43:37;5.00;99.90
10911;DHT22;5508;49.150;11.030;2024-03-06T01:46:38;5.00;99.90
10911;DHT22;5508;49.150;11.030;2024-03-06T01:49:39;5.00;99.90
10911;DHT22;5508;49.150;11.030;2024-03-06T01:52:41;5.00;99.90
10911;DHT22;5508;49.150;11.030;2024-03-06T01:55:43;5.00;99.90
10911;DHT22;5508;49.150;11.030;2024-03-06T01:58:46;5.00;99.90
10911;DHT22;5508;49.150;11.030;2024-03-06T02:01:47;5.00;99.90
10911;DHT22;5508;49.150;11.030;2024-03-06T02:04:47;5.00;99.90
10911;DHT22;5508;49.150;11.030;2024-03-06T02:07:49;5.00;99.90
10911;DHT22;5508;49.150;11.030;2024-03-06T02:10:50;5.00;99.90
10911;DHT22;5508;49.150;11.030;2024-03-06T02:13:50;5.00;99.90
10911;DHT22;5508;49.150;11.030;2024-03-06T02:16:51;5.00;99.90
10911;DHT22;5508;49.150;11.030;2024-03-06T02:19:53;5.00;99.90
10911;DHT22;5508;49.150;11.030;2024-03-06T02:22:54;5.00;99.90
10911;DHT22;5508;49.150;11.030;2024-03-06T02:25:54;5.00;99.90
10911;DHT22;5508;49.150;11.030;2024-03-06T02:28:56;5.00;99.90
10911;DHT22;5508;49.150;11.030;2024-03-06T02:31:57;5.00;99.90
10911;DHT22;5508;49.150;11.030;2024-03-06T02:34:58;5.00;99.90
10911;DHT22;5508;49.150;11.030;2024-03-06T02:38:03;5.00;99.90
10911;DHT22;5508;49.150;11.030;2024-03-06T02:41:04;5.00;99.90
10911;DHT22;5508;49.150;11.030;2024-03-06T02:44:07;5.10;99.90
10911;DHT22;5508;49.150;11.030;2024-03-06T02:47:08;5.10;99.90
10911;DHT22;5508;49.150;11.030;2024-03-06T02:50:09;5.10;99.90
10911;DHT22;5508;49.150;11.030;2024-03-06T02:53:10;5.10;99.90
10911;DHT22;5508;49.150;11.030;2024-03-06T02:56:16;5.10;99.90
10911;DHT22;5508;49.150;11.030;2024-03-06T02:59:17;5.10;99.90
10911;DHT22;5508;49.150;11.030;2024-03-06T03:02:17;5.10;99.90
10911;DHT22;5508;49.150;11.030;2024-03-06T03:05:18;5.10;99.90
10911;DHT22;5508;49.150;11.030;2024-03-06T03:08:19;5.10;99.90
10911;DHT22;5508;49.150;11.030;2024-03-06T03:11:19;5.10;99.90
10911;DHT22;5508;49.150;11.030;2024-03-06T03:14:20;5.10;99.90
10911;DHT22;5508;49.150;11.030;2024-03-06T03:17:20;5.00;99.90
10911;DHT22;5508;49.150;11.030;2024-03-06T03:20:21;5.10;99.90
10911;DHT22;5508;49.150;11.030;2024-03-06T03:23:22;5.10;99.90
10911;DHT22;5508;49.150;11.030;2024-03-06T03:26:22;5.10;99.90
10911;DHT22;5508;49.150;11.030;2024-03-06T03:29:23;5.00;99.90
10911;DHT22;5508;49.150;11.030;2024-03-06T03:32:23;5.10;99.90
10911;DHT22;5508;49.150;11.030;2024-03-06T03:35:24;5.10;99.90
10911;DHT22;5508;49.150;11.030;2024-03-06T03:38:28;5.10;99.90
10911;DHT22;5508;49.150;11.030;2024-03-06T03:41:29;5.10;99.90
10911;DHT22;5508;49.150;11.030;2024-03-06T03:44:29;5.10;99.90
10911;DHT22;5508;49.150;11.030;2024-03-06T03:47:30;5.10;99.90
10911;DHT22;5508;49.150;11.030;2024-03-06T03:50:31;5.10;99.90
10911;DHT22;5508;49.150;11.030;2024-03-06T03:53:32;5.10;99.90
10911;DHT22;5508;49.150;11.030;2024-03-06T03:56:33;5.10;99.90
10911;DHT22;5508;49.150;11.030;2024-03-06T03:59:34;5.10;99.90
10911;DHT22;5508;49.150;11.030;2024-03-06T04:02:34;5.10;99.90
10911;DHT22;5508;49.150;11.030;2024-03-06T04:05:35;5.10;99.90
10911;DHT22;5508;49.150;11.030;2024-03-06T04:08:36;5.10;99.90
10911;DHT22;5508;49.150;11.030;2024-03-06T04:11:38;5.10;99.90
10911;DHT22;5508;49.150;11.030;2024-03-06T04:14:38;5.10;99.90
10911;DHT22;5508;49.150;11.030;2024-03-06T04:17:40;5.20;99.90
10911;DHT22;5508;49.150;11.030;2024-03-06T04:20:43;5.10;99.90
10911;DHT22;5508;49.150;11.030;2024-03-06T04:23:44;5.10;99.90
10911;DHT22;5508;49.150;11.030;2024-03-06T04:26:45;5.10;99.90
10911;DHT22;5508;49.150;11.030;2024-03-06T04:29:45;5.10;99.90
10911;DHT22;5508;49.150;11.030;2024-03-06T04:32:46;5.20;99.90
10911;DHT22;5508;49.150;11.030;2024-03-06T04:35:47;5.20;99.90
10911;DHT22;5508;49.150;11.030;2024-03-06T04:38:47;5.10;99.90
10911;DHT22;5508;49.150;11.030;2024-03-06T04:41:48;5.10;99.90
10911;DHT22;5508;49.150;11.030;2024-03-06T04:44:49;5.10;99.90
10911;DHT22;5508;49.150;11.030;2024-03-06T04:47:49;5.20;99.90
10911;DHT22;5508;49.150;11.030;2024-03-06T04:50:50;5.10;99.90
10911;DHT22;5508;49.150;11.030;2024-03-06T04:53:51;5.10;99.90
10911;DHT22;5508;49.150;11.030;2024-03-06T04:56:51;5.10;99.90
10911;DHT22;5508;49.150;11.030;2024-03-06T04:59:52;5.10;99.90
10911;DHT22;5508;49.150;11.030;2024-03-06T05:02:52;5.10;99.90
10911;DHT22;5508;49.150;11.030;2024-03-06T05:05:53;5.10;99.90
10911;DHT22;5508;49.150;11.030;2024-03-06T05:08:53;5.20;99.90
10911;DHT22;5508;49.150;11.030;2024-03-06T05:11:54;5.20;99.90
10911;DHT22;5508;49.150;11.030;2024-03-06T05:14:55;5.20;99.90
10911;DHT22;5508;49.150;11.030;2024-03-06T05:17:56;5.20;99.90
10911;DHT22;5508;49.150;11.030;2024-03-06T05:20:56;5.20;99.90
10911;DHT22;5508;49.150;11.030;2024-03-06T05:23:57;5.10;99.90
10911;DHT22;5508;49.150;11.030;2024-03-06T05:26:57;5.10;99.90
10911;DHT22;5508;49.150;11.030;2024-03-06T05:29:58;5.10;99.90
10911;DHT22;5508;49.150;11.030;2024-03-06T05:32:58;5.20;99.90
10911;DHT22;5508;49.150;11.030;2024-03-06T05:35:59;5.20;99.90
10911;DHT22;5508;49.150;11.030;2024-03-06T05:39:00;5.20;99.90
10911;DHT22;5508;49.150;11.030;2024-03-06T05:42:02;5.30;99.90
10911;DHT22;5508;49.150;11.030;2024-03-06T05:45:03;5.30;99.90
10911;DHT22;5508;49.150;11.030;2024-03-06T05:48:10;5.30;99.90
10911;DHT22;5508;49.150;11.030;2024-03-06T05:51:11;5.20;99.90
10911;DHT22;5508;49.150;11.030;2024-03-06T05:54:11;5.20;99.90
10911;DHT22;5508;49.150;11.030;2024-03-06T05:57:12;5.20;99.90
10911;DHT22;5508;49.150;11.030;2024-03-06T06:00:13;5.30;99.90
10911;DHT22;5508;49.150;11.030;2024-03-06T06:03:14;5.30;99.90
10911;DHT22;5508;49.150;11.030;2024-03-06T06:06:15;5.30;99.90
10911;DHT22;5508;49.150;11.030;2024-03-06T06:09:16;5.30;99.90
10911;DHT22;5508;49.150;11.030;2024-03-06T06:12:17;5.30;99.90
10911;DHT22;5508;49.150;11.030;2024-03-06T06:15:19;5.30;99.90
10911;DHT22;5508;49.150;11.030;2024-03-06T06:18:19;5.30;99.90
10911;DHT22;5508;49.150;11.030;2024-03-06T06:21:20;5.30;99.90
10911;DHT22;5508;49.150;11.030;2024-03-06T06:24:21;5.30;99.90
10911;DHT22;5508;49.150;11.030;2024-03-06T06:27:21;5.30;99.90
10911;DHT22;5508;49.150;11.030;2024-03-06T06:30:22;5.30;99.90
10911;DHT22;5508;49.150;11.030;2024-03-06T06:33:23;5.40;99.90
10911;DHT22;5508;49.150;11.030;2024-03-06T06:36:24;5.40;99.90
10911;DHT22;5508;49.150;11.030;2024-03-06T06:39:24;5.40;99.90
10911;DHT22;5508;49.150;11.030;2024-03-06T06:42:25;5.50;99.90
10911;DHT22;5508;49.150;11.030;2024-03-06T06:45:26;5.50;99.90
10911;DHT22;5508;49.150;11.030;2024-03-06T06:48:26;5.50;99.90
10911;DHT22;5508;49.150;11.030;2024-03-06T06:51:27;5.50;99.90
10911;DHT22;5508;49.150;11.030;2024-03-06T06:54:28;5.60;99.90
10911;DHT22;5508;49.150;11.030;2024-03-06T06:57:28;5.60;99.90
10911;DHT22;5508;49.150;11.030;2024-03-06T07:00:29;5.60;99.90
10911;DHT22;5508;49.150;11.030;2024-03-06T07:03:30;5.70;99.90
10911;DHT22;5508;49.150;11.030;2024-03-06T07:06:31;5.70;99.90
10911;DHT22;5508;49.150;11.030;2024-03-06T07:09:32;5.70;99.90
10911;DHT22;5508;49.150;11.030;2024-03-06T07:12:32;5.70;99.90
10911;DHT22;5508;49.150;11.030;2024-03-06T07:15:33;5.80;99.90
10911;DHT22;5508;49.150;11.030;2024-03-06T07:18:34;5.80;99.90
10911;DHT22;5508;49.150;11.030;2024-03-06T07:21:35;5.80;99.90
10911;DHT22;5508;49.150;11.030;2024-03-06T07:24:36;5.90;99.90
10911;DHT22;5508;49.150;11.030;2024-03-06T07:27:37;5.90;99.90
10911;DHT22;5508;49.150;11.030;2024-03-06T07:30:37;6.00;99.90
10911;DHT22;5508;49.150;11.030;2024-03-06T07:33:38;6.10;99.90
10911;DHT22;5508;49.150;11.030;2024-03-06T07:36:39;6.10;99.90
10911;DHT22;5508;49.150;11.030;2024-03-06T07:39:39;6.10;99.90
10911;DHT22;5508;49.150;11.030;2024-03-06T07:42:40;6.10;99.90
10911;DHT22;5508;49.150;11.030;2024-03-06T07:45:41;6.10;99.90
10911;DHT22;5508;49.150;11.030;2024-03-06T07:48:42;6.10;99.90
10911;DHT22;5508;49.150;11.030;2024-03-06T07:51:44;6.10;99.90
10911;DHT22;5508;49.150;11.030;2024-03-06T07:54:45;6.20;99.90
10911;DHT22;5508;49.150;11.030;2024-03-06T07:57:46;6.20;99.90
10911;DHT22;5508;49.150;11.030;2024-03-06T08:00:46;6.20;99.90
10911;DHT22;5508;49.150;11.030;2024-03-06T08:03:47;6.30;99.90
10911;DHT22;5508;49.150;11.030;2024-03-06T08:06:48;6.30;99.90
10911;DHT22;5508;49.150;11.030;2024-03-06T08:09:48;6.40;99.90
10911;DHT22;5508;49.150;11.030;2024-03-06T08:12:49;6.40;99.90
10911;DHT22;5508;49.150;11.030;2024-03-06T08:15:50;6.40;99.90
10911;DHT22;5508;49.150;11.030;2024-03-06T08:18:51;6.40;99.90
10911;DHT22;5508;49.150;11.030;2024-03-06T08:21:52;6.40;99.90
10911;DHT22;5508;49.150;11.030;2024-03-06T08:24:52;6.50;99.90
10911;DHT22;5508;49.150;11.030;2024-03-06T08:27:53;6.40;99.90
10911;DHT22;5508;49.150;11.030;2024-03-06T08:30:53;6.50;99.90
10911;DHT22;5508;49.150;11.030;2024-03-06T08:33:54;6.50;99.90
10911;DHT22;5508;49.150;11.030;2024-03-06T08:36:55;6.50;99.90
10911;DHT22;5508;49.150;11.030;2024-03-06T08:39:56;6.50;99.90
10911;DHT22;5508;49.150;11.030;2024-03-06T08:42:56;6.50;99.90
10911;DHT22;5508;49.150;11.030;2024-03-06T08:45:57;6.60;99.90
10911;DHT22;5508;49.150;11.030;2024-03-06T08:48:57;6.60;99.90
10911;DHT22;5508;49.150;11.030;2024-03-06T08:51:58;6.70;99.90
10911;DHT22;5508;49.150;11.030;2024-03-06T08:54:59;6.80;99.90
10911;DHT22;5508;49.150;11.030;2024-03-06T08:58:00;6.90;99.90
10911;DHT22;5508;49.150;11.030;2024-03-06T09:01:01;7.10;99.90
10911;DHT22;5508;49.150;11.030;2024-03-06T09:04:02;7.10;99.90
10911;DHT22;5508;49.150;11.030;2024-03-06T09:07:02;7.20;99.90
10911;DHT22;5508;49.150;11.030;2024-03-06T09:10:04;7.30;99.90
10911;DHT22;5508;49.150;11.030;2024-03-06T09:13:06;7.40;99.90
10911;DHT22;5508;49.150;11.030;2024-03-06T09:16:06;7.40;99.90
10911;DHT22;5508;49.150;11.030;2024-03-06T09:19:07;7.60;99.90
10911;DHT22;5508;49.150;11.030;2024-03-06T09:22:08;7.70;97.30
10911;DHT22;5508;49.150;11.030;2024-03-06T09:25:08;7.80;96.00
10911;DHT22;5508;49.150;11.030;2024-03-06T09:28:09;7.90;98.00
10911;DHT22;5508;49.150;11.030;2024-03-06T09:31:09;8.00;95.30
10911;DHT22;5508;49.150;11.030;2024-03-06T09:34:11;8.00;93.50
10911;DHT22;5508;49.150;11.030;2024-03-06T09:37:12;7.90;93.30
10911;DHT22;5508;49.150;11.030;2024-03-06T09:40:20;8.10;95.40
10911;DHT22;5508;49.150;11.030;2024-03-06T09:43:22;8.30;94.70
10911;DHT22;5508;49.150;11.030;2024-03-06T09:46:23;8.50;93.00
10911;DHT22;5508;49.150;11.030;2024-03-06T09:49:24;8.50;94.00
10911;DHT22;5508;49.150;11.030;2024-03-06T09:52:25;8.50;91.50
10911;DHT22;5508;49.150;11.030;2024-03-06T09:55:26;8.40;91.90
10911;DHT22;5508;49.150;11.030;2024-03-06T09:58:27;8.30;92.50
10911;DHT22;5508;49.150;11.030;2024-03-06T10:01:30;8.30;92.50
10911;DHT22;5508;49.150;11.030;2024-03-06T10:04:33;8.40;92.40
10911;DHT22;5508;49.150;11.030;2024-03-06T10:07:34;8.40;91.60
10911;DHT22;5508;49.150;11.030;2024-03-06T10:10:35;8.60;93.50
10911;DHT22;5508;49.150;11.030;2024-03-06T10:13:37;8.60;88.90
10911;DHT22;5508;49.150;11.030;2024-03-06T10:16:37;8.70;90.00
10911;DHT22;5508;49.150;11.030;2024-03-06T10:19:38;8.80;87.10
10911;DHT22;5508;49.150;11.030;2024-03-06T10:22:39;8.90;90.50
10911;DHT22;5508;49.150;11.030;2024-03-06T10:25:43;9.00;86.40
10911;DHT22;5508;49.150;11.030;2024-03-06T10:28:48;9.20;86.70
10911;DHT22;5508;49.150;11.030;2024-03-06T10:31:53;9.10;85.00
10911;DHT22;5508;49.150;11.030;2024-03-06T10:34:56;8.90;82.90
10911;DHT22;5508;49.150;11.030;2024-03-06T10:38:00;8.70;83.60
10911;DHT22;5508;49.150;11.030;2024-03-06T10:41:01;8.80;84.40
10911;DHT22;5508;49.150;11.030;2024-03-06T10:44:03;8.70;85.40
10911;DHT22;5508;49.150;11.030;2024-03-06T10:47:09;8.70;84.30
10911;DHT22;5508;49.150;11.030;2024-03-06T10:50:11;8.60;84.80
10911;DHT22;5508;49.150;11.030;2024-03-06T10:53:15;8.60;86.00
10911;DHT22;5508;49.150;11.030;2024-03-06T10:56:17;8.50;87.00
10911;DHT22;5508;49.150;11.030;2024-03-06T10:59:20;8.50;87.90
10911;DHT22;5508;49.150;11.030;2024-03-06T11:02:22;8.50;86.30
10911;DHT22;5508;49.150;11.030;2024-03-06T11:05:23;8.60;85.90
10911;DHT22;5508;49.150;11.030;2024-03-06T11:08:24;8.70;84.70
10911;DHT22;5508;49.150;11.030;2024-03-06T11:11:26;8.70;83.40
10911;DHT22;5508;49.150;11.030;2024-03-06T11:14:27;8.80;84.30
10911;DHT22;5508;49.150;11.030;2024-03-06T11:17:27;8.80;84.10
10911;DHT22;5508;49.150;11.030;2024-03-06T11:20:33;8.90;84.20
10911;DHT22;5508;49.150;11.030;2024-03-06T11:23:34;8.90;83.50
10911;DHT22;5508;49.150;11.030;2024-03-06T11:26:35;9.00;82.40
10911;DHT22;5508;49.150;11.030;2024-03-06T11:33:14;9.20;80.70
10911;DHT22;5508;49.150;11.030;2024-03-06T11:36:21;9.40;82.00
10911;DHT22;5508;49.150;11.030;2024-03-06T11:39:23;9.60;79.80
10911;DHT22;5508;49.150;11.030;2024-03-06T11:42:33;9.70;79.50
10911;DHT22;5508;49.150;11.030;2024-03-06T11:45:44;10.20;76.70
10911;DHT22;5508;49.150;11.030;2024-03-06T11:48:55;10.40;79.90
10911;DHT22;5508;49.150;11.030;2024-03-06T11:51:58;10.60;76.70
10911;DHT22;5508;49.150;11.030;2024-03-06T11:54:59;10.30;74.50
10911;DHT22;5508;49.150;11.030;2024-03-06T11:57:59;10.20;75.10
10911;DHT22;5508;49.150;11.030;2024-03-06T12:01:00;10.20;73.90
10911;DHT22;5508;49.150;11.030;2024-03-06T12:04:01;9.90;76.40
10911;DHT22;5508;49.150;11.030;2024-03-06T12:07:02;9.80;75.40
10911;DHT22;5508;49.150;11.030;2024-03-06T12:10:06;9.70;76.40
10911;DHT22;5508;49.150;11.030;2024-03-06T12:13:06;9.40;76.90
10911;DHT22;5508;49.150;11.030;2024-03-06T12:16:07;9.10;80.60
10911;DHT22;5508;49.150;11.030;2024-03-06T12:19:08;8.90;80.20
10911;DHT22;5508;49.150;11.030;2024-03-06T12:22:11;8.80;80.10
10911;DHT22;5508;49.150;11.030;2024-03-06T12:25:22;8.70;80.70
10911;DHT22;5508;49.150;11.030;2024-03-06T12:28:24;8.70;82.30
10911;DHT22;5508;49.150;11.030;2024-03-06T12:31:24;8.80;81.40
10911;DHT22;5508;49.150;11.030;2024-03-06T12:34:25;8.80;81.00
10911;DHT22;5508;49.150;11.030;2024-03-06T12:37:32;8.90;79.90
10911;DHT22;5508;49.150;11.030;2024-03-06T12:40:33;8.90;78.80
10911;DHT22;5508;49.150;11.030;2024-03-06T12:43:33;8.90;79.20
10911;DHT22;5508;49.150;11.030;2024-03-06T12:46:35;8.90;77.30
10911;DHT22;5508;49.150;11.030;2024-03-06T12:49:35;9.00;76.90
10911;DHT22;5508;49.150;11.030;2024-03-06T12:52:37;9.00;78.10
10911;DHT22;5508;49.150;11.030;2024-03-06T12:55:37;9.00;76.90
10911;DHT22;5508;49.150;11.030;2024-03-06T12:58:38;9.10;77.90
10911;DHT22;5508;49.150;11.030;2024-03-06T13:01:38;9.30;75.90
10911;DHT22;5508;49.150;11.030;2024-03-06T13:04:39;9.30;76.20
10911;DHT22;5508;49.150;11.030;2024-03-06T13:07:40;9.40;76.10
10911;DHT22;5508;49.150;11.030;2024-03-06T13:10:42;9.20;76.60
10911;DHT22;5508;49.150;11.030;2024-03-06T13:13:43;8.90;77.10
10911;DHT22;5508;49.150;11.030;2024-03-06T13:16:44;8.80;78.10
10911;DHT22;5508;49.150;11.030;2024-03-06T13:19:44;8.80;79.40
10911;DHT22;5508;49.150;11.030;2024-03-06T13:22:45;8.80;78.60
10911;DHT22;5508;49.150;11.030;2024-03-06T13:25:46;8.80;78.10
10911;DHT22;5508;49.150;11.030;2024-03-06T13:28:46;8.90;78.20
10911;DHT22;5508;49.150;11.030;2024-03-06T13:31:47;9.00;78.90
10911;DHT22;5508;49.150;11.030;2024-03-06T13:34:48;9.20;77.30
10911;DHT22;5508;49.150;11.030;2024-03-06T13:37:48;9.20;77.00
10911;DHT22;5508;49.150;11.030;2024-03-06T13:40:52;9.30;76.10
10911;DHT22;5508;49.150;11.030;2024-03-06T13:43:52;9.20;76.00
10911;DHT22;5508;49.150;11.030;2024-03-06T13:46:53;9.20;76.90
10911;DHT22;5508;49.150;11.030;2024-03-06T13:49:53;9.10;74.70
10911;DHT22;5508;49.150;11.030;2024-03-06T13:52:55;9.20;74.40
10911;DHT22;5508;49.150;11.030;2024-03-06T13:55:56;9.20;76.20
10911;DHT22;5508;49.150;11.030;2024-03-06T13:58:57;9.30;76.40
10911;DHT22;5508;49.150;11.030;2024-03-06T14:01:57;9.30;75.30
10911;DHT22;5508;49.150;11.030;2024-03-06T14:04:59;9.30;75.00
10911;DHT22;5508;49.150;11.030;2024-03-06T14:08:00;9.40;75.30
10911;DHT22;5508;49.150;11.030;2024-03-06T14:11:00;9.30;72.90
10911;DHT22;5508;49.150;11.030;2024-03-06T14:14:01;9.30;73.60
10911;DHT22;5508;49.150;11.030;2024-03-06T14:17:02;9.30;72.90
10911;DHT22;5508;49.150;11.030;2024-03-06T14:20:02;9.30;72.60
10911;DHT22;5508;49.150;11.030;2024-03-06T14:23:03;9.30;72.10
10911;DHT22;5508;49.150;11.030;2024-03-06T14:26:04;9.50;72.00
10911;DHT22;5508;49.150;11.030;2024-03-06T14:29:06;9.70;70.70
10911;DHT22;5508;49.150;11.030;2024-03-06T14:32:08;9.70;70.40
10911;DHT22;5508;49.150;11.030;2024-03-06T14:35:09;9.70;70.60
10911;DHT22;5508;49.150;11.030;2024-03-06T14:38:10;9.80;69.60
10911;DHT22;5508;49.150;11.030;2024-03-06T14:41:13;9.80;68.60
10911;DHT22;5508;49.150;11.030;2024-03-06T14:44:14;9.60;68.30
10911;DHT22;5508;49.150;11.030;2024-03-06T14:47:14;9.60;69.80
10911;DHT22;5508;49.150;11.030;2024-03-06T14:50:15;9.60;71.30
10911;DHT22;5508;49.150;11.030;2024-03-06T14:53:16;9.60;69.00
10911;DHT22;5508;49.150;11.030;2024-03-06T14:56:17;9.40;69.30
10911;DHT22;5508;49.150;11.030;2024-03-06T14:59:19;9.30;69.50
10911;DHT22;5508;49.150;11.030;2024-03-06T15:02:19;9.20;70.20
10911;DHT22;5508;49.150;11.030;2024-03-06T15:05:20;9.20;71.30
10911;DHT22;5508;49.150;11.030;2024-03-06T15:08:21;9.10;70.90
10911;DHT22;5508;49.150;11.030;2024-03-06T15:11:22;9.10;71.20
10911;DHT22;5508;49.150;11.030;2024-03-06T15:14:24;9.00;72.00
10911;DHT22;5508;49.150;11.030;2024-03-06T15:17:25;9.00;72.20
10911;DHT22;5508;49.150;11.030;2024-03-06T15:20:26;9.00;73.50
10911;DHT22;5508;49.150;11.030;2024-03-06T15:23:28;8.90;72.70
10911;DHT22;5508;49.150;11.030;2024-03-06T15:26:29;8.90;72.80
10911;DHT22;5508;49.150;11.030;2024-03-06T15:29:29;8.90;73.00
10911;DHT22;5508;49.150;11.030;2024-03-06T15:32:30;8.90;72.40
10911;DHT22;5508;49.150;11.030;2024-03-06T15:35:31;8.90;72.30
10911;DHT22;5508;49.150;11.030;2024-03-06T15:38:31;8.90;73.90
10911;DHT22;5508;49.150;11.030;2024-03-06T15:41:32;8.80;73.60
10911;DHT22;5508;49.150;11.030;2024-03-06T15:44:33;8.70;73.80
10911;DHT22;5508;49.150;11.030;2024-03-06T15:47:33;8.70;75.30
10911;DHT22;5508;49.150;11.030;2024-03-06T15:50:34;8.70;74.80
10911;DHT22;5508;49.150;11.030;2024-03-06T15:53:35;8.60;75.20
10911;DHT22;5508;49.150;11.030;2024-03-06T15:56:36;8.60;75.60
10911;DHT22;5508;49.150;11.030;2024-03-06T15:59:37;8.50;75.90
10911;DHT22;5508;49.150;11.030;2024-03-06T16:02:37;8.50;76.20
10911;DHT22;5508;49.150;11.030;2024-03-06T16:05:38;8.50;76.60
10911;DHT22;5508;49.150;11.030;2024-03-06T16:08:39;8.40;77.20
10911;DHT22;5508;49.150;11.030;2024-03-06T16:11:40;8.40;77.20
10911;DHT22;5508;49.150;11.030;2024-03-06T16:14:41;8.30;77.40
10911;DHT22;5508;49.150;11.030;2024-03-06T16:17:42;8.30;77.50
10911;DHT22;5508;49.150;11.030;2024-03-06T16:20:42;8.20;78.60
10911;DHT22;5508;49.150;11.030;2024-03-06T16:23:43;8.20;78.40
10911;DHT22;5508;49.150;11.030;2024-03-06T16:26:43;8.10;78.80
10911;DHT22;5508;49.150;11.030;2024-03-06T16:29:44;8.10;78.90
10911;DHT22;5508;49.150;11.030;2024-03-06T16:32:44;8.10;79.90
10911;DHT22;5508;49.150;11.030;2024-03-06T16:35:45;8.00;80.20
10911;DHT22;5508;49.150;11.030;2024-03-06T16:38:46;8.00;80.50
10911;DHT22;5508;49.150;11.030;2024-03-06T16:41:47;8.00;80.90
10911;DHT22;5508;49.150;11.030;2024-03-06T16:44:47;7.90;81.20
10911;DHT22;5508;49.150;11.030;2024-03-06T16:47:48;7.90;81.70
10911;DHT22;5508;49.150;11.030;2024-03-06T16:50:50;7.90;82.30
10911;DHT22;5508;49.150;11.030;2024-03-06T16:53:51;7.80;82.60
10911;DHT22;5508;49.150;11.030;2024-03-06T16:56:52;7.80;82.70
10911;DHT22;5508;49.150;11.030;2024-03-06T16:59:52;7.70;84.00
10911;DHT22;5508;49.150;11.030;2024-03-06T17:02:53;7.70;83.80
10911;DHT22;5508;49.150;11.030;2024-03-06T17:05:56;7.60;84.10
10911;DHT22;5508;49.150;11.030;2024-03-06T17:08:56;7.60;84.30
10911;DHT22;5508;49.150;11.030;2024-03-06T17:11:57;7.50;85.60
10911;DHT22;5508;49.150;11.030;2024-03-06T17:14:58;7.50;84.90
10911;DHT22;5508;49.150;11.030;2024-03-06T17:17:58;7.50;85.40
10911;DHT22;5508;49.150;11.030;2024-03-06T17:20:59;7.40;85.70
10911;DHT22;5508;49.150;11.030;2024-03-06T17:24:00;7.30;86.30
10911;DHT22;5508;49.150;11.030;2024-03-06T17:27:01;7.20;86.70
10911;DHT22;5508;49.150;11.030;2024-03-06T17:30:01;7.20;87.40
10911;DHT22;5508;49.150;11.030;2024-03-06T17:33:02;7.10;88.20
10911;DHT22;5508;49.150;11.030;2024-03-06T17:36:03;7.00;88.90
10911;DHT22;5508;49.150;11.030;2024-03-06T17:39:05;7.00;89.50
10911;DHT22;5508;49.150;11.030;2024-03-06T17:42:09;7.00;89.80
10911;DHT22;5508;49.150;11.030;2024-03-06T17:45:09;7.00;90.30
10911;DHT22;5508;49.150;11.030;2024-03-06T17:48:10;6.90;91.00
10911;DHT22;5508;49.150;11.030;2024-03-06T17:51:10;6.80;92.10
10911;DHT22;5508;49.150;11.030;2024-03-06T17:54:11;6.80;92.00
10911;DHT22;5508;49.150;11.030;2024-03-06T17:57:15;6.80;92.10
10911;DHT22;5508;49.150;11.030;2024-03-06T18:00:16;6.80;92.70
10911;DHT22;5508;49.150;11.030;2024-03-06T18:03:17;6.70;94.90
10911;DHT22;5508;49.150;11.030;2024-03-06T18:06:19;6.60;95.50
10911;DHT22;5508;49.150;11.030;2024-03-06T18:09:21;6.50;96.50
10911;DHT22;5508;49.150;11.030;2024-03-06T18:12:21;6.40;96.80
10911;DHT22;5508;49.150;11.030;2024-03-06T18:15:22;6.30;97.20
10911;DHT22;5508;49.150;11.030;2024-03-06T18:18:23;6.20;98.20
10911;DHT22;5508;49.150;11.030;2024-03-06T18:21:23;6.10;98.70
10911;DHT22;5508;49.150;11.030;2024-03-06T18:24:25;6.10;98.90
10911;DHT22;5508;49.150;11.030;2024-03-06T18:27:26;6.10;99.40
10911;DHT22;5508;49.150;11.030;2024-03-06T18:30:26;6.10;99.30
10911;DHT22;5508;49.150;11.030;2024-03-06T18:33:27;6.10;99.80
10911;DHT22;5508;49.150;11.030;2024-03-06T18:36:27;6.00;99.90
10911;DHT22;5508;49.150;11.030;2024-03-06T18:39:28;6.00;99.90
10911;DHT22;5508;49.150;11.030;2024-03-06T18:42:29;6.00;99.90
10911;DHT22;5508;49.150;11.030;2024-03-06T18:45:30;5.90;99.90
10911;DHT22;5508;49.150;11.030;2024-03-06T18:48:30;5.90;99.90
10911;DHT22;5508;49.150;11.030;2024-03-06T18:51:31;5.80;99.90
10911;DHT22;5508;49.150;11.030;2024-03-06T18:54:32;5.80;99.90
10911;DHT22;5508;49.150;11.030;2024-03-06T18:57:32;5.70;99.90
10911;DHT22;5508;49.150;11.030;2024-03-06T19:00:33;5.70;99.90
10911;DHT22;5508;49.150;11.030;2024-03-06T19:03:34;5.60;99.90
10911;DHT22;5508;49.150;11.030;2024-03-06T19:06:36;5.50;99.90
10911;DHT22;5508;49.150;11.030;2024-03-06T19:09:37;5.60;99.90
10911;DHT22;5508;49.150;11.030;2024-03-06T19:12:38;5.70;99.90
10911;DHT22;5508;49.150;11.030;2024-03-06T19:15:38;5.80;98.10
10911;DHT22;5508;49.150;11.030;2024-03-06T19:18:39;5.80;95.80
10911;DHT22;5508;49.150;11.030;2024-03-06T19:21:40;5.80;94.40
10911;DHT22;5508;49.150;11.030;2024-03-06T19:24:40;5.70;94.40